Latest Weather Observations for Cessnock Airport

IDN60801

Issued at 9:33 am EDT Sunday 21 December 2014 (issued every 30 minutes, with the page automatically refreshed every 10 minutes)

About weather observations | Map of weather stations | Latest weather observations for NSW | Other Formats
Station Details ID: 061260 Name: CESSNOCK AIRPORT AWS Lat: -32.79 Lon: 151.34 Height: 61.0 m
Data from the previous 72 hours. | See also: Recent months at Cessnock Airport
Date/Time
EDT
Temp
°C
App
Temp
°C
Dew
Point
Rel
Hum
%
Delta-T
°C
Wind Press
QNH
hPa
Press
MSL
hPa
Rain
since 9 am
mm
Dir
 
Spd
km/h
Gust
km/h
Spd
kts
Gust
kts
21/09:30am 24.2 23.2 14.6 55 5.7 ENE 13 20 7 11 1017.5 1017.3 0.0
21/09:00am 23.2 21.7 14.2 57 5.3 E 15 20 8 11 1017.7 1017.5 0.0
21/08:30am 22.9 21.8 15.2 62 4.6 E 15 22 8 12 1017.7 1017.5 0.0
21/08:00am 21.5 20.3 13.9 62 4.4 ESE 13 20 7 11 1017.5 1017.3 0.0
21/07:30am 20.6 20.3 14.3 67 3.7 SE 9 15 5 8 1017.4 1017.2 0.0
21/07:00am 18.9 19.1 14.6 76 2.5 SSE 7 11 4 6 1017.1 1016.9 0.0
21/06:30am 16.3 15.9 13.0 81 1.8 S 7 9 4 5 1016.8 1016.6 0.0
21/06:00am 15.4 15.4 14.3 93 0.6 SSW 7 7 4 4 1016.6 1016.4 0.0
21/05:30am 15.2 15.2 13.7 91 0.8 S 6 7 3 4 1016.4 1016.2 0.0
21/05:00am 14.4 13.6 11.7 84 1.5 S 7 9 4 5 1016.1 1015.9 0.0
21/04:30am 15.2 14.6 12.3 83 1.6 SSW 7 9 4 5 1016.2 1016.0 0.0
21/04:00am 15.3 14.7 12.2 82 1.7 SSW 7 11 4 6 1016.2 1016.0 0.0
21/03:30am 15.1 14.8 12.8 86 1.3 S 6 7 3 4 1016.0 1015.8 0.0
21/03:00am 14.9 14.7 12.9 88 1.1 SSW 6 7 3 4 1016.4 1016.2 0.0
21/02:30am 15.6 15.0 12.4 81 1.8 SSW 7 9 4 5 1016.6 1016.4 0.0
21/02:00am 15.6 15.1 12.2 80 1.9 S 6 7 3 4 1016.8 1016.6 0.0
21/01:30am 16.5 15.3 12.7 78 2.1 SSW 11 11 6 6 1017.0 1016.8 0.0
21/01:00am 16.4 16.1 12.6 78 2.1 S 6 9 3 5 1017.2 1017.0 0.0
21/12:30am 16.2 15.1 12.0 76 2.3 S 9 11 5 6 1017.5 1017.3 0.0
21/12:00am 16.6 15.6 12.4 76 2.3 SSW 9 13 5 7 1017.8 1017.6 0.0
 
Date/Time
EDT
Temp
°C
App
Temp
°C
Dew
Point
Rel
Hum
%
Delta-T
°C
Wind Press
QNH
hPa
Press
MSL
hPa
Rain
since 9 am
mm
Dir
 
Spd
km/h
Gust
km/h
Spd
kts
Gust
kts
20/11:30pm 16.7 15.8 12.7 77 2.2 SSW 9 11 5 6 1017.9 1017.7 0.0
20/11:00pm 16.1 15.0 12.1 77 2.2 SSW 9 11 5 6 1018.1 1017.9 0.0
20/10:30pm 16.4 15.0 12.2 76 2.3 SW 11 13 6 7 1018.1 1017.9 0.0
20/10:00pm 17.0 16.3 11.9 72 2.8 S 7 9 4 5 1018.0 1017.8 0.0
20/09:30pm 17.7 17.0 11.9 69 3.2 SSE 7 9 4 5 1017.8 1017.6 0.0
20/09:00pm 18.2 17.0 11.5 65 3.7 SSE 9 15 5 8 1017.6 1017.4 0.0
20/08:30pm 19.4 17.8 11.4 60 4.4 SE 11 15 6 8 1017.1 1016.9 0.0
20/08:00pm 20.1 18.0 11.1 56 4.9 SE 13 17 7 9 1016.8 1016.6 0.0
20/07:30pm 21.0 18.1 11.1 53 5.5 ESE 17 28 9 15 1016.3 1016.1 0.0
20/07:00pm 21.8 18.4 11.2 51 5.9 E 20 28 11 15 1016.0 1015.8 0.0
20/06:30pm 22.6 19.5 12.3 52 5.9 E 20 28 11 15 1015.5 1015.3 0.0
20/06:00pm 23.4 20.4 12.1 49 6.4 E 19 24 10 13 1014.9 1014.7 0.0
20/05:30pm 23.4 19.6 11.1 46 6.9 ESE 22 32 12 17 1014.7 1014.5 0.0
20/05:00pm 24.8 21.8 12.7 47 7.0 E 20 32 11 17 1014.5 1014.3 0.0
20/04:30pm 24.8 21.8 12.1 45 7.3 E 19 28 10 15 1014.5 1014.3 0.0
20/04:00pm 25.6 22.9 11.7 42 7.9 ENE 17 24 9 13 1014.6 1014.4 0.0
20/03:30pm 24.7 21.8 10.9 42 7.7 ENE 17 26 9 14 1015.0 1014.8 0.0
20/03:00pm 24.7 22.0 10.2 40 8.0 ENE 15 26 8 14 1015.3 1015.1 0.0
20/02:30pm 25.2 21.9 11.0 41 8.0 NE 19 22 10 12 1015.4 1015.2 0.0
20/02:00pm 24.8 22.5 13.0 47 6.9 ENE 17 24 9 13 1015.6 1015.4 0.0
20/01:30pm 23.3 20.7 10.7 45 7.0 E 15 20 8 11 1016.2 1016.0 0.0
20/01:00pm 23.7 21.4 11.7 47 6.8 E 15 20 8 11 1016.6 1016.4 0.0
20/12:30pm 23.3 21.5 12.0 49 6.4 E 13 20 7 11 1017.0 1016.8 0.0
20/12:00pm 22.6 21.2 12.3 52 5.8 E 11 20 6 11 1017.3 1017.1 0.0
20/11:30am 22.9 20.5 12.8 53 5.8 E 17 22 9 12 1017.5 1017.3 0.0
20/11:00am 21.8 20.5 12.4 55 5.3 NE 11 15 6 8 1017.6 1017.4 0.0
20/10:30am 21.6 20.3 11.3 52 5.7 SE 9 17 5 9 1017.7 1017.5 0.0
20/10:00am 20.9 19.6 11.3 54 5.3 ESE 9 15 5 8 1017.8 1017.6 0.0
20/09:30am 20.9 18.8 11.0 53 5.5 E 13 20 7 11 1017.8 1017.6 0.0
20/09:00am 20.6 19.5 11.8 57 4.9 SSE 9 15 5 8 1017.8 1017.6 0.0
20/08:30am 19.4 17.7 11.2 59 4.5 S 11 17 6 9 1017.7 1017.5 0.0
20/08:00am 19.1 17.0 12.4 65 3.7 S 15 19 8 10 1017.4 1017.2 0.0
20/07:30am 18.3 17.0 11.4 64 3.8 S 9 11 5 6 1017.4 1017.2 0.0
20/07:00am 18.0 17.2 11.8 67 3.4 S 7 11 4 6 1017.1 1016.9 0.0
20/06:30am 17.2 16.5 11.9 71 2.9 S 7 9 4 5 1016.8 1016.6 0.0
20/06:00am 15.6 14.9 12.0 79 2.0 S 7 9 4 5 1016.6 1016.4 0.0
20/05:30am 14.6 13.8 11.2 80 1.8 SSW 6 7 3 4 1016.5 1016.3 0.0
20/05:00am 15.4 14.6 11.6 78 2.1 WSW 7 9 4 5 1016.3 1016.1 0.0
20/04:30am 16.1 15.2 11.3 73 2.6 SSW 7 9 4 5 1016.2 1016.0 0.0
20/04:00am 17.0 16.2 11.1 68 3.2 S 6 7 3 4 1016.2 1016.0 0.0
20/03:30am 17.2 16.3 11.2 68 3.2 S 7 9 4 5 1016.3 1016.1 0.0
20/03:00am 17.8 17.0 11.1 65 3.6 SE 6 7 3 4 1016.4 1016.2 0.0
20/02:30am 17.6 18.0 11.4 67 3.4 CALM 0 4 0 2 1016.6 1016.4 0.0
20/02:00am 18.1 18.2 10.2 60 4.2 CALM 0 0 0 0 1016.8 1016.6 0.0
20/01:30am 18.6 17.5 10.7 60 4.3 SE 7 13 4 7 1017.1 1016.9 0.0
20/01:00am 18.4 17.4 11.0 62 4.0 SSE 7 13 4 7 1017.3 1017.1 0.0
20/12:30am 18.6 17.3 11.4 63 3.9 SSE 9 13 5 7 1017.6 1017.4 0.0
20/12:00am 18.5 17.6 11.3 63 3.9 SSE 7 9 4 5 1017.7 1017.5 0.0
 
Date/Time
EDT
Temp
°C
App
Temp
°C
Dew
Point
Rel
Hum
%
Delta-T
°C
Wind Press
QNH
hPa
Press
MSL
hPa
Rain
since 9 am
mm
Dir
 
Spd
km/h
Gust
km/h
Spd
kts
Gust
kts
19/11:30pm 18.7 16.9 11.0 61 4.2 SSE 11 13 6 7 1017.8 1017.6 0.0
19/11:00pm 18.7 16.6 11.0 61 4.2 S 13 19 7 10 1017.8 1017.6 0.0
19/10:30pm 18.9 17.0 11.7 63 4.0 SSE 13 20 7 11 1017.7 1017.5 0.0
19/10:00pm 18.8 16.7 11.1 61 4.2 S 13 20 7 11 1017.5 1017.3 0.0
19/09:30pm 19.0 16.2 11.3 61 4.2 SSE 17 26 9 14 1017.0 1016.8 0.0
19/09:00pm 19.3 16.1 11.1 59 4.5 SSE 19 26 10 14 1016.5 1016.3 0.0
19/08:30pm 19.4 15.9 10.9 58 4.6 SSE 20 28 11 15 1016.1 1015.9 0.0
19/08:00pm 19.6 16.7 11.1 58 4.7 SE 17 24 9 13 1015.5 1015.3 0.0
19/07:30pm 19.8 16.3 11.0 57 4.8 SE 20 30 11 16 1014.9 1014.7 0.0
19/07:00pm 20.5 16.6 10.9 54 5.3 SSE 22 30 12 16 1014.0 1013.8 0.0
19/06:30pm 20.8 17.4 11.2 54 5.3 SE 20 30 11 16 1013.2 1013.0 0.0
19/06:00pm 21.8 18.1 11.5 52 5.8 SE 22 30 12 16 1012.6 1012.4 0.0
19/05:30pm 21.7 17.1 11.1 51 5.9 SE 26 35 14 19 1012.1 1011.9 0.0
19/05:00pm 22.4 18.4 10.5 47 6.6 SE 22 33 12 18 1011.6 1011.3 0.0
19/04:30pm 23.1 19.5 11.8 49 6.4 SE 22 30 12 16 1011.4 1011.1 0.0
19/04:00pm 23.1 19.3 12.4 51 6.1 SE 24 33 13 18 1011.4 1011.1 0.0
19/03:30pm 23.5 20.4 12.2 49 6.4 SE 20 30 11 16 1011.3 1011.0 0.0
19/03:00pm 24.1 20.8 12.7 49 6.6 SSE 22 35 12 19 1011.3 1011.0 0.0
19/02:30pm 24.6 21.5 13.5 50 6.5 SE 22 28 12 15 1011.4 1011.1 0.0
19/02:00pm 24.1 22.2 13.0 50 6.4 ESE 15 24 8 13 1011.6 1011.3 0.0
19/01:30pm 23.9 20.8 12.2 48 6.7 SE 20 26 11 14 1011.8 1011.6 0.0
19/01:00pm 23.9 19.9 11.9 47 6.8 E 24 33 13 18 1011.8 1011.6 0.0
19/12:30pm 24.2 21.2 12.5 48 6.7 ESE 20 32 11 17 1011.9 1011.7 0.0
19/12:00pm 23.8 20.8 11.8 47 6.8 SE 19 30 10 16 1012.0 1011.8 0.0
19/11:30am 23.8 21.1 12.8 50 6.3 ESE 19 28 10 15 1012.0 1011.8 0.0
19/11:00am 22.9 19.4 12.2 51 6.1 ESE 22 28 12 15 1012.1 1011.9 0.0
19/10:30am 23.6 21.5 12.3 49 6.5 SSE 15 24 8 13 1012.1 1011.9 0.0
19/10:00am 23.4 21.3 12.4 50 6.3 S 15 22 8 12 1012.1 1011.9 0.0
19/09:30am 22.9 21.0 13.1 54 5.7 SE 15 22 8 12 1012.0 1011.8 0.0
19/09:00am 22.2 19.9 13.0 56 5.3 ESE 17 20 9 11 1011.8 1011.6 0.0
19/08:30am 21.7 21.1 14.6 64 4.2 ESE 11 15 6 8 1011.7 1011.4 0.0
19/08:00am 20.8 19.2 14.0 65 4.0 ESE 15 19 8 10 1011.1 1010.8 0.0
19/07:30am 21.2 20.0 12.9 59 4.7 ESE 11 15 6 8 1010.4 1010.1 0.0
19/07:00am 20.3 17.9 11.5 57 4.9 SSE 15 22 8 12 1009.5 1009.2 0.0
19/06:30am 19.1 18.6 11.9 63 4.0 ESE 6 11 3 6 1008.6 1008.3 0.0
19/06:00am 15.2 16.5 15.2 100 0.0 W 2 7 1 4 1008.3 1008.0 0.0
19/05:30am 15.0 15.3 15.0 100 0.0 NNE 7 9 4 5 1007.9 1007.6 0.0
19/05:00am 13.8 14.2 13.8 100 0.0 ESE 4 11 2 6 1007.4 1007.1 0.0
19/04:30am 14.0 14.5 14.0 100 0.0 SW 4 7 2 4 1006.9 1006.6 0.0
19/04:00am 14.8 16.0 14.8 100 0.0 WSW 2 7 1 4 1006.6 1006.3 0.0
19/03:30am 15.4 17.2 15.4 100 0.0 CALM 0 0 0 0 1006.4 1006.1 0.0
19/03:00am 16.1 16.8 16.1 100 0.0 SSW 7 9 4 5 1006.1 1005.8 0.0
19/02:30am 16.0 17.2 16.0 100 0.0 SSW 4 7 2 4 1006.0 1005.7 0.0
19/02:00am 16.4 18.5 16.2 99 0.1 CALM 0 6 0 3 1006.0 1005.7 0.0
19/01:30am 16.8 18.3 16.6 99 0.1 N 4 7 2 4 1006.1 1005.8 0.0
19/01:00am 17.9 19.8 17.7 99 0.1 W 4 9 2 5 1006.4 1006.1 0.0
19/12:30am 18.2 19.8 17.9 98 0.2 W 6 7 3 4 1006.5 1006.2 0.0
19/12:00am 19.1 21.0 18.6 97 0.3 WNW 6 11 3 6 1006.8 1006.5 0.0
 
Date/Time
EDT
Temp
°C
App
Temp
°C
Dew
Point
Rel
Hum
%
Delta-T
°C
Wind Press
QNH
hPa
Press
MSL
hPa
Rain
since 9 am
mm
Dir
 
Spd
km/h
Gust
km/h
Spd
kts
Gust
kts
18/11:30pm 19.5 22.1 18.5 94 0.6 NW 2 7 1 4 1006.8 1006.5 0.0
18/11:00pm 20.3 22.2 19.0 92 0.8 WSW 7 9 4 5 1006.5 1006.2 0.0
18/10:30pm 21.2 22.9 18.0 82 2.0 WSW 6 11 3 6 1006.4 1006.1 0.0
18/10:00pm 22.4 24.1 18.6 79 2.4 WSW 7 13 4 7 1006.1 1005.8 0.0
18/09:30pm 23.5 25.4 18.6 74 3.1 SSE 6 11 3 6 1005.5 1005.3 0.0
18/09:00pm 24.0 24.6 18.6 72 3.4 SSE 13 15 7 8 1005.3 1005.1 0.0
18/08:30pm 24.5 25.5 18.7 70 3.7 SSE 11 13 6 7 1004.4 1004.2 0.0
18/08:00pm 25.7 27.0 18.4 64 4.7 E 9 11 5 6 1004.0 1003.8 0.0
18/07:30pm 27.1 27.4 17.0 54 6.3 NE 11 13 6 7 1003.7 1003.5 0.0
18/07:00pm 27.2 27.2 17.1 54 6.3 NE 13 17 7 9 1003.5 1003.3 0.0
18/06:30pm 27.6 27.1 16.9 52 6.7 NNE 15 19 8 10 1003.3 1003.1 0.0
18/06:00pm 27.5 26.3 17.1 53 6.5 NNE 19 22 10 12 1003.3 1003.1 0.0
18/05:30pm 27.2 27.0 17.7 56 6.0 NNE 15 20 8 11 1003.6 1003.4 0.0
18/05:00pm 27.8 28.1 17.0 51 6.8 NNE 11 15 6 8 1003.4 1003.2 0.0
18/04:30pm 27.7 28.7 16.9 51 6.8 NNE 7 11 4 6 1003.6 1003.4 0.0
18/04:00pm 27.6 28.7 16.6 51 6.9 ESE 6 11 3 6 1004.2 1004.0 0.0
18/03:30pm 27.2 28.4 16.8 53 6.5 WSW 6 7 3 4 1004.4 1004.2 0.0
18/03:00pm 27.3 28.2 16.6 52 6.7 ENE 7 15 4 8 1005.0 1004.8 0.0
18/02:30pm 27.2 28.3 16.5 52 6.6 ESE 6 9 3 5 1005.7 1005.4 0.0
18/02:00pm 26.7 27.3 15.7 51 6.7 N 7 11 4 6 1005.8 1005.5 0.0
18/01:30pm 27.3 28.7 17.8 56 6.0 S 7 15 4 8 1005.9 1005.6 0.0
18/01:00pm 26.4 27.0 15.8 52 6.5 W 7 13 4 7 1006.2 1005.9 0.0
18/12:30pm 25.8 26.1 16.1 55 6.0 S 9 11 5 6 1006.5 1006.2 0.0
18/12:00pm 25.7 26.0 16.0 55 6.0 S 9 11 5 6 1006.7 1006.4 0.0
18/11:30am 25.8 26.7 16.6 56 5.7 SE 7 13 4 7 1007.0 1006.7 0.0
18/11:00am 24.8 25.9 17.0 62 4.8 SSW 7 15 4 8 1007.5 1007.2 0.0
18/10:30am 23.8 24.6 16.3 63 4.6 SSW 7 13 4 7 1007.7 1007.4 0.0
18/10:00am 22.9 23.6 16.0 65 4.2 ESE 7 11 4 6 1007.8 1007.5 0.0

Other Formats:

Comma delimited format used in spreadsheet applications
http://www.bom.gov.au/fwo/IDN60801/IDN60801.95771.axf

JavaScript Object Notation format (JSON) in row-major order
http://www.bom.gov.au/fwo/IDN60801/IDN60801.95771.json